PAUNPAMK

Guest
Details From PAUN - Unalakleet
To PAMK - ST MICHAEL
Flight Number -
Tags generated
Created
Modified
Stats Distance 43 nm / 80 km
Max Altitude 4,100 ft / 1,250 m
Waypoints 3
Social Downloads 1
Likes 0
Share VATSIM

Download

Looking for another format? Having issues loading an existing format? Contact us
Advertisement - Login to hide

Notes

Basic altitude profile: - Ascent Rate: 700ft/min - Ascent Speed: 100kts - Cruise Altitude: 3000ft - Cruise Speed: 125kts - Descent Rate: 1500ft/min - Descent Speed: 125kts Options: - Use NATs: yes - Use PACOTS: yes - Use low airways: yes - Use high airways: yes

Route

PAUN CONFI PAMK

ID Type Via Altitude Latitude Longitude Leg Dist Tot Dist Heading (true) Name
O PAUN APT - 0 ft / 0 m 63.88659˚ -160.79693˚ - 0 nm - Unalakleet
CONFI FIX - 4,100 ft / 1,250 m 63.83524˚ -161.21692˚ 11 nm 11 nm 255° / 254° -
O PAMK APT - 0 ft / 0 m 63.49005˚ -162.11038˚ 31 nm 43 nm 229° / 229° ST MICHAEL

Altitude Profile

Advertisement - Login to hide

PAUN

Details ICAO PAUN (UNK)
Name Unalakleet
Region USA (Alaska)
Timezone America/Anchorage (UTC-9.0)
Stats Elevation 68 ft / 21 m (AMSL)
Location 63.886590° -160.796931°
Runways 2
Magnetic Variation 12.179° E

METAR

PAUN 120956Z AUTO 07010KT 10SM SCT080 BKN100 M01/M02 A2947 RMK AO2 UPE12 SLP984 P0000 T10061022 FZRANO

Decode

TAF

PAUN 120524Z 1206/1306 08012KT 6SM -SN BR SCT025 BKN035 OVC050 FM120900 09015KT 6SM -SN BR BKN015 BKN025 OVC035 FM121200 09015G25KT 6SM -SN BR BKN015 BKN025 OVC035

Decode

Departure Runways

ID Width Length Bearing (true) Bearing (mag) Surface Threshold Offset Overrun Length
15 151 ft / 46 m 5,990 ft / 1,826 m 164.15° 151.97° Asphalt 0 ft / 0 m 499 ft / 152 m
26 79 ft / 24 m 1,993 ft / 608 m 278.43° 266.25° Asphalt 0 ft / 0 m 0 ft / 0 m
33 151 ft / 46 m 5,990 ft / 1,826 m 344.16° 331.98° Asphalt 0 ft / 0 m 0 ft / 0 m
8 79 ft / 24 m 1,993 ft / 608 m 98.42° 86.24° Asphalt 0 ft / 0 m 0 ft / 0 m

PAMK

Details ICAO PAMK (SMK)
Name ST MICHAEL
Region USA (Alaska)
Timezone America/Nome (UTC-9.0)
Stats Elevation 93 ft / 28 m (AMSL)
Location 63.490049° -162.110378°
Runways 1
Magnetic Variation 11.552° E

METAR

PAMK 120956Z AUTO 03005KT 10SM OVC049 M04/M05 A2944 RMK AO2 SNE34 SLP971 P0000 T10391050 FZRANO $

Decode

TAF

Not found

Destination Runways

ID Width Length Bearing (true) Bearing (mag) Surface Threshold Offset Overrun Length
02 75 ft / 23 m 3,991 ft / 1,216 m 32.86° 21.31° Gravel 0 ft / 0 m 299 ft / 91 m
20 75 ft / 23 m 3,991 ft / 1,216 m 212.87° 201.32° Gravel 0 ft / 0 m 299 ft / 91 m